Time;durP1;ratioP1;P1;durP2;ratioP2;P2;SDS_P1;SDS_P2;PMS_P1;PMS_P2;Temp;Humidity;BMP_temperature;BMP_pressure;BME280_temperature;BME280_humidity;BME280_pressure;Samples;Min_cycle;Max_cycle;Signal;HPM_P1;HPM_P2
2023/02/23 00:01:53;;;;;;;18.50;7.20;;;;;;;4.37;54.68;100910.84;123175;1105;104275;-79
2023/02/23 00:04:28;;;;;;;16.77;7.57;;;;;;;4.37;55.03;100912.55;123226;1105;104719;-77
2023/02/23 00:07:00;;;;;;;18.90;7.53;;;;;;;4.31;54.92;100906.12;123028;1105;104424;-77
2023/02/23 00:09:35;;;;;;;15.85;6.80;;;;;;;4.26;54.92;100922.22;122991;1105;104626;-78
2023/02/23 00:12:07;;;;;;;15.53;6.50;;;;;;;4.21;54.88;100921.91;123293;1105;104238;-79
2023/02/23 00:14:39;;;;;;;14.00;6.33;;;;;;;4.17;55.56;100919.88;123073;1105;102116;-81
2023/02/23 00:17:13;;;;;;;13.97;6.30;;;;;;;4.14;54.75;100924.87;123242;1105;104313;-78
2023/02/23 00:19:48;;;;;;;14.97;6.10;;;;;;;4.10;55.59;100925.48;123058;1105;107848;-78
2023/02/23 00:22:21;;;;;;;12.53;5.60;;;;;;;4.09;55.19;100929.75;123113;1105;104357;-78
2023/02/23 00:24:56;;;;;;;15.28;5.85;;;;;;;4.04;54.99;100925.95;123205;1105;104357;-78
2023/02/23 00:27:29;;;;;;;13.93;5.80;;;;;;;4.01;55.36;100935.23;123103;1105;104253;-78
2023/02/23 00:30:04;;;;;;;12.17;5.47;;;;;;;3.99;55.00;100936.80;123381;1105;118614;-78
2023/02/23 00:32:38;;;;;;;13.85;5.30;;;;;;;3.99;55.32;100935.13;123117;1105;104425;-78
2023/02/23 00:35:16;;;;;;;11.37;4.93;;;;;;;4.01;55.23;100932.64;123117;1105;104322;-78
2023/02/23 00:37:49;;;;;;;13.03;4.83;;;;;;;3.97;55.43;100936.69;123217;1105;104376;-78
2023/02/23 00:40:24;;;;;;;9.97;4.77;;;;;;;3.99;55.33;100937.72;123360;1105;104293;-78
2023/02/23 00:42:57;;;;;;;9.83;4.57;;;;;;;3.97;55.09;100944.48;123094;1105;104472;-78
2023/02/23 00:45:32;;;;;;;13.53;5.03;;;;;;;3.93;55.31;100951.17;123069;1105;104303;-78
2023/02/23 00:48:09;;;;;;;9.27;4.40;;;;;;;3.91;55.49;100944.05;123255;1105;104320;-78
2023/02/23 00:50:41;;;;;;;11.70;5.00;;;;;;;3.90;55.15;100943.16;123201;1105;111753;-78
2023/02/23 00:53:13;;;;;;;9.63;4.80;;;;;;;3.90;54.94;100947.47;123553;1105;104377;-78
2023/02/23 00:55:46;;;;;;;10.03;4.50;;;;;;;3.89;55.89;100956.05;123094;1105;104373;-78
2023/02/23 00:58:19;;;;;;;11.37;5.07;;;;;;;3.87;55.35;100950.74;123091;1106;105915;-78
2023/02/23 01:00:54;;;;;;;10.10;4.30;;;;;;;3.86;55.29;100955.83;123175;1105;104706;-78
2023/02/23 01:03:27;;;;;;;9.83;4.77;;;;;;;3.84;55.93;100947.04;123428;1105;104246;-78
2023/02/23 01:06:05;;;;;;;10.90;4.80;;;;;;;3.83;55.77;100948.71;123173;1105;104341;-78
2023/02/23 01:08:41;;;;;;;11.00;4.55;;;;;;;3.85;55.30;100951.42;123191;1105;104258;-78
2023/02/23 01:11:16;;;;;;;10.83;4.37;;;;;;;3.85;55.72;100943.62;123432;1105;107848;-78
2023/02/23 01:13:49;;;;;;;11.57;4.90;;;;;;;3.85;56.44;100944.55;123284;1105;104274;-78
2023/02/23 01:16:26;;;;;;;8.67;4.33;;;;;;;3.84;56.29;100947.04;123219;1105;104331;-78
2023/02/23 01:19:04;;;;;;;9.50;4.63;;;;;;;3.84;55.40;100949.64;123260;1105;104281;-78
2023/02/23 01:21:38;;;;;;;8.13;4.20;;;;;;;3.84;55.86;100934.95;123090;1105;119124;-78
2023/02/23 01:24:10;;;;;;;9.43;4.40;;;;;;;3.82;55.87;100948.61;123185;1105;104409;-78
2023/02/23 01:26:44;;;;;;;9.87;4.83;;;;;;;3.82;55.70;100944.34;123241;1105;104280;-78
2023/02/23 01:29:16;;;;;;;;;;;;;;;3.86;56.08;100941.14;123250;1105;104379;-78
2023/02/23 01:31:50;;;;;;;9.60;4.00;;;;;;;3.86;56.17;100946.33;123252;1105;104363;-78
2023/02/23 01:34:23;;;;;;;9.50;4.70;;;;;;;3.81;56.33;100952.91;123264;1105;104293;-78
2023/02/23 01:36:55;;;;;;;10.87;4.43;;;;;;;3.81;55.91;100950.31;123116;1105;104386;-78
2023/02/23 01:39:27;;;;;;;8.00;4.10;;;;;;;3.82;56.09;100944.34;123161;1105;104329;-79
2023/02/23 01:42:31;;;;;;;10.33;4.40;;;;;;;3.80;55.62;100945.91;123116;1105;104653;-79
2023/02/23 01:45:24;;;;;;;9.38;4.37;;;;;;;3.72;56.03;100957.45;123325;1105;104185;-78
2023/02/23 01:48:15;;;;;;;10.73;4.47;;;;;;;3.65;56.70;100950.94;123273;1105;104361;-77
2023/02/23 01:51:05;;;;;;;8.37;4.27;;;;;;;3.66;56.04;100962.21;123406;1105;104376;-78
2023/02/23 01:53:48;;;;;;;10.47;4.47;;;;;;;3.64;56.29;100964.70;123320;1105;104382;-77
2023/02/23 01:56:27;;;;;;;9.40;4.67;;;;;;;3.61;56.22;100948.91;123249;1104;104319;-78
2023/02/23 01:59:03;;;;;;;9.43;4.50;;;;;;;3.62;56.73;100945.53;123156;1105;104220;-77
2023/02/23 02:01:34;;;;;;;11.47;4.80;;;;;;;3.64;56.70;100958.62;123109;1105;104358;-77
2023/02/23 02:04:15;;;;;;;11.13;5.30;;;;;;;3.59;56.45;100960.88;123120;1106;104306;-77
2023/02/23 02:06:52;;;;;;;10.40;4.60;;;;;;;3.54;56.66;100968.34;123234;1105;104307;-78
2023/02/23 02:09:28;;;;;;;14.53;5.53;;;;;;;3.52;56.71;100969.94;123251;1106;104460;-78
2023/02/23 02:12:01;;;;;;;10.63;4.87;;;;;;;3.53;56.97;100971.72;123185;1105;104684;-77
2023/02/23 02:14:38;;;;;;;11.20;4.57;;;;;;;3.59;56.81;100972.16;123230;1105;104373;-78
2023/02/23 02:17:30;;;;;;;10.90;4.97;;;;;;;3.62;56.81;100978.38;123407;1104;104319;-78
2023/02/23 02:20:49;;;;;;;11.87;4.93;;;;;;;3.58;56.68;100979.83;123331;1105;104361;-78
2023/02/23 02:24:09;;;;;;;14.30;5.30;;;;;;;3.49;56.85;100990.48;123222;1109;104402;-77
2023/02/23 02:27:05;;;;;;;12.07;4.60;;;;;;;3.43;57.42;101000.41;123421;1105;104194;-78
2023/02/23 02:30:24;;;;;;;12.60;4.97;;;;;;;3.31;57.64;100999.52;123306;1105;104405;-78
2023/02/23 02:33:30;;;;;;;12.30;4.97;;;;;;;3.22;57.20;100997.14;123362;1105;104261;-78
2023/02/23 02:36:42;;;;;;;12.43;4.90;;;;;;;3.16;57.77;100987.21;123209;1105;104248;-78
2023/02/23 02:39:34;;;;;;;12.20;5.00;;;;;;;3.09;57.69;100995.35;123260;1104;104399;-78
2023/02/23 02:42:16;;;;;;;11.47;4.97;;;;;;;3.07;57.57;101009.91;123356;1105;104290;-78
2023/02/23 02:44:56;;;;;;;8.77;4.60;;;;;;;3.11;57.53;101008.43;123224;1105;117771;-77
2023/02/23 02:47:35;;;;;;;9.87;4.53;;;;;;;3.16;57.72;101013.14;123258;1105;104435;-78
2023/02/23 02:50:12;;;;;;;11.70;4.77;;;;;;;3.23;57.09;101017.12;123304;1105;104242;-78
2023/02/23 02:52:49;;;;;;;13.47;4.80;;;;;;;3.27;57.59;101013.05;123386;1105;104293;-78
2023/02/23 02:55:26;;;;;;;12.53;5.10;;;;;;;3.23;57.37;101019.70;123520;1105;104274;-78
2023/02/23 02:58:01;;;;;;;12.40;5.03;;;;;;;3.16;57.94;101020.92;123338;1105;104415;-77
2023/02/23 04:19:29;;;;;;;17.33;6.73;;;;;;;3.22;58.35;101086.22;123827;1105;104296;-79
2023/02/23 04:22:04;;;;;;;15.37;6.60;;;;;;;3.23;58.77;101090.63;123615;1105;104946;-79
2023/02/23 04:24:36;;;;;;;17.50;7.77;;;;;;;3.26;58.31;101086.45;123256;1105;104296;-79
2023/02/23 04:27:08;;;;;;;18.43;7.57;;;;;;;3.26;58.47;101089.05;123814;1105;104422;-79
2023/02/23 04:29:39;;;;;;;16.57;6.77;;;;;;;3.27;58.40;101096.05;123372;1105;104692;-79
2023/02/23 04:32:15;;;;;;;17.20;6.85;;;;;;;3.28;58.47;101096.16;123332;1105;104258;-79
2023/02/23 04:34:48;;;;;;;18.80;7.77;;;;;;;3.28;58.22;101097.86;123295;1106;104235;-78
2023/02/23 04:37:21;;;;;;;20.30;8.10;;;;;;;3.28;58.57;101093.56;123298;1105;104291;-79
2023/02/23 04:39:53;;;;;;;20.00;8.20;;;;;;;3.26;58.77;101104.61;123157;1105;104393;-79
2023/02/23 04:42:25;;;;;;;22.60;7.60;;;;;;;3.22;58.30;101098.30;123254;1105;104310;-79
2023/02/23 04:44:56;;;;;;;26.53;8.03;;;;;;;3.21;58.45;101105.19;123341;1105;104722;-78
2023/02/23 04:47:28;;;;;;;18.47;7.27;;;;;;;3.21;58.81;101112.04;124011;1105;104306;-81
2023/02/23 04:50:03;;;;;;;18.30;8.00;;;;;;;3.21;58.34;101106.85;124001;1105;104354;-82
2023/02/23 04:52:36;;;;;;;20.20;7.83;;;;;;;3.23;58.84;101107.89;123915;1105;104319;-81
2023/02/23 04:55:15;;;;;;;17.67;7.70;;;;;;;3.26;58.37;101109.80;124075;1105;104333;-81
2023/02/23 04:57:46;;;;;;;17.83;7.40;;;;;;;3.27;58.72;101116.80;123666;1105;104261;-81
2023/02/23 05:00:19;;;;;;;19.20;7.57;;;;;;;3.29;58.37;101120.39;123704;1104;104239;-81
2023/02/23 05:02:50;;;;;;;16.30;7.40;;;;;;;3.29;58.45;101118.73;123927;1105;104376;-81
2023/02/23 05:05:22;;;;;;;17.17;7.30;;;;;;;3.31;59.21;101122.33;124393;1105;104197;-81
2023/02/23 05:07:53;;;;;;;23.20;7.60;;;;;;;3.33;58.94;101127.63;124435;1105;104204;-81
2023/02/23 05:10:25;;;;;;;18.53;7.87;;;;;;;3.34;58.44;101129.45;124489;1105;104213;-82
2023/02/23 05:13:00;;;;;;;20.23;8.17;;;;;;;3.33;58.71;101127.63;124297;1105;104258;-81
2023/02/23 05:15:31;;;;;;;21.00;8.57;;;;;;;3.34;58.16;101130.34;124533;1104;104336;-79
2023/02/23 05:18:04;;;;;;;22.60;9.37;;;;;;;3.36;58.72;101139.13;123499;1105;104265;-80
2023/02/23 05:20:36;;;;;;;20.10;9.20;;;;;;;3.37;59.01;101146.14;123514;1105;104213;-78
2023/02/23 05:23:07;;;;;;;22.67;9.90;;;;;;;3.38;59.26;101144.43;123359;1105;104197;-79
2023/02/23 05:25:39;;;;;;;24.67;9.63;;;;;;;3.42;59.01;101152.56;123478;1105;104230;-78
2023/02/23 05:28:11;;;;;;;23.20;9.95;;;;;;;3.42;58.41;101154.27;123385;1105;104387;-78
2023/02/23 05:30:42;;;;;;;22.97;9.67;;;;;;;3.38;59.08;101162.59;123645;1105;104249;-79
2023/02/23 05:33:14;;;;;;;19.87;8.10;;;;;;;3.38;58.93;101158.33;123486;1105;104316;-80
2023/02/23 05:35:46;;;;;;;18.63;7.63;;;;;;;3.35;58.78;101172.73;123633;1105;104274;-80
2023/02/23 05:38:20;;;;;;;18.47;8.13;;;;;;;3.34;58.46;101169.25;123736;1105;104261;-79
2023/02/23 05:40:52;;;;;;;19.73;8.33;;;;;;;3.36;59.05;101177.16;123705;1105;104252;-79
2023/02/23 05:43:25;;;;;;;21.57;8.87;;;;;;;3.39;58.29;101185.16;123759;1105;104300;-80
2023/02/23 05:46:00;;;;;;;20.52;8.33;;;;;;;3.45;58.60;101189.92;123653;1105;104239;-79
2023/02/23 05:48:31;;;;;;;21.10;8.30;;;;;;;3.50;58.90;101198.95;123705;1105;104294;-80
2023/02/23 05:51:05;;;;;;;25.97;8.97;;;;;;;3.46;57.95;101187.45;123743;1105;104179;-79
2023/02/23 05:53:37;;;;;;;20.80;8.08;;;;;;;3.50;58.19;101189.46;123886;1105;104264;-80
2023/02/23 05:56:12;;;;;;;20.50;8.70;;;;;;;3.51;58.44;101201.66;124118;1105;102431;-80
2023/02/23 05:58:44;;;;;;;20.93;8.70;;;;;;;3.57;58.71;101198.63;124132;1105;102581;-79
2023/02/23 06:01:16;;;;;;;20.97;8.70;;;;;;;3.62;58.53;101210.25;123973;1105;104373;-79
2023/02/23 06:03:48;;;;;;;21.77;8.47;;;;;;;3.62;58.39;101214.55;124033;1105;104312;-80
2023/02/23 06:06:24;;;;;;;20.60;7.83;;;;;;;3.54;58.22;101229.55;123978;1106;102055;-79
2023/02/23 06:08:55;;;;;;;21.63;8.27;;;;;;;3.46;58.07;101234.16;123878;1105;104191;-78
2023/02/23 06:11:27;;;;;;;19.70;8.00;;;;;;;3.40;57.84;101233.69;123724;1105;104290;-79
2023/02/23 06:14:00;;;;;;;17.53;7.00;;;;;;;3.35;58.15;101235.00;123751;1105;104188;-79
2023/02/23 06:16:32;;;;;;;18.37;7.27;;;;;;;3.36;57.64;101229.93;123706;1105;104364;-80
2023/02/23 06:19:03;;;;;;;16.60;6.90;;;;;;;3.39;57.82;101237.05;123885;1105;104491;-81
2023/02/23 06:21:35;;;;;;;33.53;9.23;;;;;;;3.38;58.10;101246.55;123899;1105;102528;-80
2023/02/23 06:24:07;;;;;;;42.33;10.07;;;;;;;3.42;57.98;101245.08;123955;1105;104264;-81
2023/02/23 06:26:38;;;;;;;19.23;7.20;;;;;;;3.39;57.59;101234.45;123853;1105;104185;-78
2023/02/23 06:29:11;;;;;;;16.47;6.97;;;;;;;3.49;58.18;101244.77;123930;1106;105647;-80
2023/02/23 06:31:43;;;;;;;32.60;8.15;;;;;;;3.56;57.83;101246.13;124219;1105;102833;-82
2023/02/23 06:34:14;;;;;;;18.40;7.13;;;;;;;3.64;58.07;101247.59;124916;1105;104259;-79
2023/02/23 06:36:47;;;;;;;17.43;6.50;;;;;;;3.67;57.36;101249.53;124366;1105;104274;-82
2023/02/23 06:39:25;;;;;;;16.03;7.10;;;;;;;3.64;56.92;101260.57;125082;1105;102103;-83
2023/02/23 06:41:59;;;;;;;15.77;5.97;;;;;;;3.67;57.20;101257.31;124234;1105;104261;-80
2023/02/23 06:44:34;;;;;;;;;;;;;;;3.68;56.13;101252.24;124611;1105;104181;-84
2023/02/23 06:47:07;;;;;;;18.55;6.85;;;;;;;3.75;56.85;101258.79;125011;1105;102424;-83
2023/02/23 06:49:41;;;;;;;19.70;6.35;;;;;;;3.83;57.11;101270.64;125045;1105;104258;-84
2023/02/23 06:52:15;;;;;;;16.33;6.17;;;;;;;3.84;55.88;101266.38;124909;1105;104382;-81
2023/02/23 06:54:48;;;;;;;21.15;7.53;;;;;;;3.81;56.08;101269.63;124863;1105;104194;-82
2023/02/23 06:57:22;;;;;;;21.07;6.80;;;;;;;3.82;56.44;101263.66;125092;1105;104631;-84
2023/02/23 07:00:03;;;;;;;19.30;6.87;;;;;;;3.88;56.35;101266.72;124895;1105;102090;-84
2023/02/23 07:02:37;;;;;;;16.50;6.50;;;;;;;3.93;57.02;101269.66;125111;1105;103465;-83
2023/02/23 07:05:27;;;;;;;15.63;6.30;;;;;;;3.85;56.39;101269.09;125055;1105;104316;-86
2023/02/23 07:08:04;;;;;;;17.23;5.97;;;;;;;3.85;56.53;101274.28;125025;1105;104281;-84
2023/02/23 07:10:45;;;;;;;21.20;7.43;;;;;;;3.84;56.42;101268.97;125232;1105;103627;-83
2023/02/23 07:13:20;;;;;;;15.23;6.83;;;;;;;4.00;56.42;101271.02;125100;1105;104300;-82
2023/02/23 07:16:00;;;;;;;16.90;7.07;;;;;;;4.04;55.73;101279.14;124411;1105;104197;-82
2023/02/23 07:18:43;;;;;;;20.77;7.40;;;;;;;4.10;57.32;101278.70;124821;1106;104297;-85
2023/02/23 07:21:39;;;;;;;18.67;7.47;;;;;;;4.26;56.94;101281.63;125107;1105;104252;-80
2023/02/23 07:24:20;;;;;;;15.77;6.47;;;;;;;4.24;55.41;101283.22;125312;1106;103533;-80
2023/02/23 07:27:02;;;;;;;16.53;6.90;;;;;;;4.15;55.81;101285.14;125272;1106;104243;-83
2023/02/23 07:29:58;;;;;;;17.13;7.07;;;;;;;4.21;56.06;101285.59;125347;1105;102146;-84
2023/02/23 07:32:36;;;;;;;18.00;7.30;;;;;;;4.31;55.69;101284.56;125386;1105;104347;-82
2023/02/23 07:35:13;;;;;;;20.53;7.70;;;;;;;4.41;56.25;101291.33;125253;1105;104202;-82
2023/02/23 07:37:54;;;;;;;17.73;6.60;;;;;;;4.54;56.14;101294.04;125249;1105;102949;-84
2023/02/23 07:40:58;;;;;;;18.30;6.80;;;;;;;4.63;55.97;101293.81;125174;1105;102746;-80
2023/02/23 07:44:02;;;;;;;18.07;7.23;;;;;;;4.61;55.11;101295.38;125135;1105;104489;-81
2023/02/23 07:46:39;;;;;;;17.57;7.10;;;;;;;4.60;55.72;101285.80;125174;1105;104139;-80
2023/02/23 07:49:13;;;;;;;21.93;7.80;;;;;;;4.70;55.86;101295.16;125228;1105;102258;-82
2023/02/23 07:51:53;;;;;;;15.88;6.90;;;;;;;4.88;56.19;101295.55;125266;1104;120092;-80
2023/02/23 07:54:30;;;;;;;19.17;7.30;;;;;;;5.00;55.43;101297.34;124297;1105;104076;-79
2023/02/23 07:57:05;;;;;;;17.50;7.17;;;;;;;5.08;55.78;101296.97;124383;1105;104243;-78
2023/02/23 07:59:41;;;;;;;17.80;6.73;;;;;;;5.11;54.66;101304.98;124257;1105;104405;-80
2023/02/23 08:02:18;;;;;;;16.63;6.80;;;;;;;5.15;54.52;101301.81;124467;1105;104255;-79
2023/02/23 08:04:55;;;;;;;16.07;6.40;;;;;;;5.17;53.94;101305.42;124345;1103;102952;-79
2023/02/23 08:07:40;;;;;;;16.53;6.80;;;;;;;5.19;53.57;101304.73;124468;1105;102337;-79
2023/02/23 08:10:17;;;;;;;17.30;6.27;;;;;;;5.25;54.42;101299.08;124497;1106;103062;-78
2023/02/23 08:13:05;;;;;;;24.17;6.43;;;;;;;5.36;54.47;101308.52;124530;1105;102544;-80
2023/02/23 08:15:53;;;;;;;18.33;6.70;;;;;;;5.44;54.57;101305.53;124654;1105;104316;-79
2023/02/23 08:18:31;;;;;;;19.07;6.33;;;;;;;5.47;54.23;101310.95;125423;1105;102475;-78
2023/02/23 08:21:10;;;;;;;16.40;6.73;;;;;;;5.50;53.14;101303.34;124563;1105;104422;-76
2023/02/23 08:23:51;;;;;;;17.83;7.03;;;;;;;5.39;52.27;101319.15;124267;1105;103565;-79
2023/02/23 08:26:35;;;;;;;16.37;6.77;;;;;;;5.27;53.06;101318.29;124380;1105;102323;-80
2023/02/23 08:29:19;;;;;;;16.03;7.00;;;;;;;5.19;53.73;101317.75;125283;1105;104191;-78
2023/02/23 08:32:01;;;;;;;21.10;7.60;;;;;;;5.12;52.87;101332.82;124648;1105;103074;-78
2023/02/23 08:34:39;;;;;;;23.73;7.33;;;;;;;5.19;53.27;101330.76;124357;1105;105345;-78
2023/02/23 08:37:16;;;;;;;14.30;6.30;;;;;;;5.13;52.92;101332.93;124528;1105;104240;-76
2023/02/23 08:39:52;;;;;;;16.77;7.60;;;;;;;5.15;52.93;101320.92;124667;1105;102643;-78
2023/02/23 08:42:30;;;;;;;17.35;7.25;;;;;;;5.17;53.54;101328.83;124558;1105;102249;-78
2023/02/23 08:45:15;;;;;;;20.97;7.27;;;;;;;5.34;53.30;101323.11;124580;1106;102625;-80
2023/02/23 08:47:56;;;;;;;17.50;7.33;;;;;;;5.57;53.23;101329.02;124627;1105;104118;-80
2023/02/23 08:50:31;;;;;;;18.47;7.70;;;;;;;5.76;53.27;101326.90;125066;1105;102085;-82
2023/02/23 08:53:30;;;;;;;20.10;7.67;;;;;;;5.97;53.18;101329.18;125298;1105;110911;-81
2023/02/23 08:56:39;;;;;;;15.37;6.60;;;;;;;6.09;52.51;101329.08;124990;1104;102270;-79
2023/02/23 08:59:36;;;;;;;14.47;6.00;;;;;;;6.25;51.42;101324.09;125348;1105;103613;-80
2023/02/23 09:02:27;;;;;;;14.10;6.40;;;;;;;6.34;51.91;101323.78;125697;1105;102039;-77
2023/02/23 09:08:24;;;;;;;16.37;6.97;;;;;;;6.38;51.73;101325.80;125630;1105;102750;-79
2023/02/23 09:11:03;;;;;;;17.92;6.55;;;;;;;6.32;51.66;101330.61;125729;1105;102336;-80
2023/02/23 09:13:46;;;;;;;17.77;6.33;;;;;;;6.30;51.38;101338.33;125858;1105;118705;-81
2023/02/23 09:16:21;;;;;;;13.73;6.60;;;;;;;6.27;51.34;101329.41;125993;1104;101879;-79
2023/02/23 09:19:06;;;;;;;15.87;6.73;;;;;;;6.33;51.60;101331.50;125998;1105;102295;-78
2023/02/23 09:21:56;;;;;;;16.02;6.75;;;;;;;6.36;51.40;101334.31;125871;1104;102614;-79
2023/02/23 09:24:31;;;;;;;13.20;6.03;;;;;;;6.31;49.69;101328.83;125801;1105;102013;-79
2023/02/23 09:27:11;;;;;;;12.53;5.80;;;;;;;6.22;49.39;101334.33;125789;1105;102632;-79
2023/02/23 09:29:45;;;;;;;11.87;5.30;;;;;;;6.00;49.50;101331.06;125879;1105;102199;-80
2023/02/23 09:32:23;;;;;;;14.40;5.90;;;;;;;6.03;50.82;101332.20;125845;1093;102463;-78
2023/02/23 09:34:55;;;;;;;14.53;6.17;;;;;;;6.15;49.13;101334.70;124913;1105;104185;-79
2023/02/23 09:37:38;;;;;;;13.23;5.47;;;;;;;6.20;50.13;101335.01;125107;1102;104406;-79
2023/02/23 09:40:23;;;;;;;13.97;6.03;;;;;;;6.36;50.18;101329.09;125243;1105;104240;-77
2023/02/23 09:43:15;;;;;;;15.60;5.67;;;;;;;6.44;49.00;101333.14;124432;1102;104178;-77
2023/02/23 09:46:10;;;;;;;14.03;5.67;;;;;;;6.44;49.75;101330.53;124639;1102;104249;-80
2023/02/23 09:48:44;;;;;;;13.77;5.70;;;;;;;6.43;49.02;101334.82;125331;1105;103052;-78
2023/02/23 09:51:21;;;;;;;12.58;5.03;;;;;;;6.39;49.09;101331.91;124663;1102;102210;-80
2023/02/23 09:54:01;;;;;;;14.63;5.57;;;;;;;6.47;49.01;101336.84;125512;1106;104176;-80
2023/02/23 09:56:37;;;;;;;15.83;5.93;;;;;;;6.31;47.59;101334.05;124587;1105;102958;-79
2023/02/23 09:59:28;;;;;;;;;;;;;;;;;;;;;
2023/02/23 10:02:24;;;;;;;11.83;5.00;;;;;;;6.21;46.99;101331.61;125362;1103;103692;-81
2023/02/23 10:05:03;;;;;;;11.67;5.20;;;;;;;6.24;47.97;101318.78;125057;1102;104127;-81
2023/02/23 10:08:06;;;;;;;9.07;4.57;;;;;;;6.28;47.99;101324.30;124506;1104;104364;-80
2023/02/23 10:10:44;;;;;;;17.40;5.33;;;;;;;6.48;48.67;101328.22;124649;1102;104200;-80
2023/02/23 10:13:32;;;;;;;10.60;4.87;;;;;;;6.63;47.36;101324.80;124727;1105;103740;-79
2023/02/23 10:16:16;;;;;;;11.70;5.60;;;;;;;6.58;47.10;101326.22;124703;1102;102238;-80
2023/02/23 10:19:02;;;;;;;11.37;4.50;;;;;;;6.36;44.83;101326.49;124603;1102;104182;-79
2023/02/23 10:21:44;;;;;;;11.17;4.90;;;;;;;6.10;45.82;101323.97;125451;1102;103006;-80
2023/02/23 10:24:27;;;;;;;12.57;4.90;;;;;;;6.07;46.91;101328.97;125404;1102;102339;-83
2023/02/23 10:27:10;;;;;;;11.12;4.60;;;;;;;6.25;47.22;101323.20;125248;1102;102074;-80
2023/02/23 10:29:57;;;;;;;12.53;5.50;;;;;;;6.34;46.77;101322.89;125193;1102;102214;-79
2023/02/23 10:32:34;;;;;;;;;;;;;;;6.44;45.08;101317.49;124606;1102;104780;-78
2023/02/23 10:35:21;;;;;;;12.87;5.33;;;;;;;6.54;47.06;101308.55;124528;1102;104299;-77
2023/02/23 10:37:55;;;;;;;11.87;4.63;;;;;;;6.62;47.05;101309.95;124425;1102;104383;-77
2023/02/23 10:40:36;;;;;;;9.85;4.60;;;;;;;6.71;46.98;101309.64;124568;1103;102233;-78
2023/02/23 10:43:11;;;;;;;10.45;4.85;;;;;;;6.84;46.99;101299.20;124586;1105;104182;-80
2023/02/23 10:45:58;;;;;;;12.17;5.27;;;;;;;6.91;45.91;101290.05;124614;1105;102257;-83
2023/02/23 10:48:41;;;;;;;11.73;5.00;;;;;;;7.02;46.47;101286.40;124520;1105;104331;-79
2023/02/23 10:51:24;;;;;;;11.13;4.73;;;;;;;7.08;44.84;101286.78;124552;1105;104297;-76
2023/02/23 10:53:57;;;;;;;11.75;5.55;;;;;;;7.17;46.49;101289.08;124805;1102;104201;-77
2023/02/23 10:56:33;;;;;;;11.40;5.37;;;;;;;7.30;45.51;101294.22;124678;1104;102576;-80
2023/02/23 10:59:21;;;;;;;14.87;5.60;;;;;;;7.18;44.89;101294.39;125155;1104;102295;-79
2023/02/23 11:01:55;;;;;;;16.33;5.23;;;;;;;7.09;45.77;101283.38;125010;1102;102309;-78
2023/02/23 11:04:31;;;;;;;17.97;5.30;;;;;;;7.08;45.50;101285.89;124880;1105;104171;-79
2023/02/23 11:07:19;;;;;;;15.57;5.47;;;;;;;6.95;45.39;101294.63;124950;1105;102262;-80
2023/02/23 11:09:59;;;;;;;13.70;5.13;;;;;;;6.94;45.57;101293.74;125457;1105;102225;-80
2023/02/23 11:12:40;;;;;;;10.23;5.10;;;;;;;7.00;45.86;101293.23;125611;1105;103798;-79
2023/02/23 11:15:32;;;;;;;14.43;5.70;;;;;;;6.98;45.30;101287.92;125516;1102;102526;-80
2023/02/23 11:18:21;;;;;;;13.93;4.73;;;;;;;7.02;45.95;101286.40;125557;1102;107021;-81
2023/02/23 11:20:58;;;;;;;12.90;5.17;;;;;;;7.11;45.21;101286.08;125537;1105;104415;-82
2023/02/23 11:23:40;;;;;;;18.63;5.40;;;;;;;7.11;45.85;101286.08;125435;1105;102186;-81
2023/02/23 11:26:31;;;;;;;11.90;5.20;;;;;;;7.25;45.86;101280.00;125671;1102;102825;-81
2023/02/23 11:29:28;;;;;;;11.77;5.00;;;;;;;7.38;45.84;101284.25;125631;1102;103157;-82
2023/02/23 11:32:15;;;;;;;11.93;4.90;;;;;;;7.36;44.08;101288.48;125584;1102;102406;-82
2023/02/23 11:35:19;;;;;;;9.23;4.60;;;;;;;7.36;44.99;101278.05;125614;1102;102981;-83
2023/02/23 11:38:02;;;;;;;17.50;6.03;;;;;;;7.27;44.14;101283.59;125563;1102;102241;-81
2023/02/23 11:41:28;;;;;;;10.67;4.83;;;;;;;7.22;44.35;101271.09;125623;1106;103196;-80
2023/02/23 11:44:07;;;;;;;10.47;4.67;;;;;;;7.15;43.19;101273.31;125619;1105;104069;-80
2023/02/23 11:46:52;;;;;;;10.30;4.70;;;;;;;7.13;43.73;101267.08;125559;1102;103505;-83
2023/02/23 11:49:49;;;;;;;29.97;6.93;;;;;;;7.17;44.93;101271.69;125571;1105;103308;-83
2023/02/23 11:52:46;;;;;;;13.43;5.30;;;;;;;7.41;45.16;101280.94;125446;1102;103166;-81
2023/02/23 11:55:30;;;;;;;21.00;5.17;;;;;;;7.63;44.95;101272.68;125510;1102;103195;-83
2023/02/23 11:58:41;;;;;;;15.53;5.27;;;;;;;7.70;44.69;101269.64;125151;1102;103064;-83
2023/02/23 12:01:36;;;;;;;14.30;5.17;;;;;;;7.69;45.15;101268.72;125498;1105;102849;-81
2023/02/23 12:04:46;;;;;;;16.73;5.07;;;;;;;7.83;44.91;101271.26;125478;1102;102611;-82
2023/02/23 12:07:33;;;;;;;20.50;6.20;;;;;;;8.04;45.11;101271.59;125447;1102;102324;-84
2023/02/23 12:10:20;;;;;;;20.10;5.23;;;;;;;8.22;45.06;101259.59;125516;1102;104079;-80
2023/02/23 12:13:06;;;;;;;13.27;5.33;;;;;;;8.31;44.54;101268.80;125431;1105;102560;-86
2023/02/23 12:15:57;;;;;;;13.67;5.60;;;;;;;8.21;43.64;101262.12;125463;1106;103092;-82
2023/02/23 12:18:46;;;;;;;11.27;5.47;;;;;;;8.25;45.02;101257.16;125395;1105;104160;-81
2023/02/23 12:21:39;;;;;;;12.37;4.93;;;;;;;8.24;41.29;101263.22;125420;1106;101887;-80
2023/02/23 12:24:24;;;;;;;12.27;5.37;;;;;;;8.06;42.76;101268.27;125469;1106;103376;-81
2023/02/23 12:27:00;;;;;;;12.17;5.40;;;;;;;8.03;43.24;101259.36;124846;1103;102952;-80
2023/02/23 12:29:47;;;;;;;13.83;5.67;;;;;;;7.93;43.07;101273.58;125203;1102;107880;-82
2023/02/23 12:32:52;;;;;;;10.53;4.80;;;;;;;7.70;42.36;101264.41;125521;1106;102842;-83
2023/02/23 12:35:46;;;;;;;15.73;6.10;;;;;;;7.53;43.51;101269.52;125456;1105;102457;-81
2023/02/23 12:38:33;;;;;;;13.20;5.83;;;;;;;7.54;43.64;101263.49;125478;1102;103423;-81
2023/02/23 12:41:11;;;;;;;11.40;5.40;;;;;;;7.53;44.12;101266.02;124973;1105;104246;-78
2023/02/23 12:43:51;;;;;;;12.17;5.30;;;;;;;7.43;43.37;101267.14;125485;1102;102221;-78
2023/02/23 12:46:46;;;;;;;12.53;5.37;;;;;;;7.37;43.60;101265.08;125386;1105;104511;-81
2023/02/23 12:49:44;;;;;;;12.83;5.70;;;;;;;7.36;43.83;101268.49;125439;1102;103223;-85
2023/02/23 12:52:39;;;;;;;19.63;6.23;;;;;;;7.34;43.71;101266.62;125411;1102;102031;-82
2023/02/23 12:55:56;;;;;;;16.13;6.63;;;;;;;7.37;43.91;101264.20;125504;1102;103163;-82
2023/02/23 12:58:35;;;;;;;69.80;13.00;;;;;;;7.45;43.93;101262.02;125019;1105;104267;-80
2023/02/23 13:01:13;;;;;;;28.90;9.30;;;;;;;7.51;44.03;101258.09;125355;1105;103202;-77
2023/02/23 13:04:17;;;;;;;16.40;6.30;;;;;;;7.60;43.76;101262.05;125224;1105;102813;-85
2023/02/23 13:07:02;;;;;;;14.33;6.00;;;;;;;7.69;44.08;101262.59;125395;1105;102037;-78
2023/02/23 13:09:52;;;;;;;16.77;5.97;;;;;;;7.76;44.22;101254.33;125413;1102;103065;-80
2023/02/23 13:12:39;;;;;;;23.63;7.10;;;;;;;7.79;43.84;101262.34;125508;1102;104201;-82
2023/02/23 13:15:28;;;;;;;14.20;5.53;;;;;;;7.83;43.96;101253.86;125534;1102;104197;-81
2023/02/23 13:18:12;;;;;;;12.55;6.00;;;;;;;7.84;43.90;101263.51;125407;1102;104358;-82
2023/02/23 13:21:00;;;;;;;;;;;;;;;;;;;;;
2023/02/23 13:23:52;;;;;;;;;;;;;;;;;;;;;
2023/02/23 13:26:41;;;;;;;16.50;5.65;;;;;;;7.76;43.59;101259.55;125265;1102;102052;-77
2023/02/23 13:29:38;;;;;;;21.20;7.20;;;;;;;7.68;42.97;101264.32;124911;1102;102995;-85
2023/02/23 13:32:36;;;;;;;16.13;5.90;;;;;;;7.61;43.14;101258.64;125375;1102;102924;-84
2023/02/23 13:35:35;;;;;;;13.08;6.22;;;;;;;7.50;42.84;101261.49;125290;1102;103561;-81
2023/02/23 13:39:02;;;;;;;;;;;;;;;;;;;;;
2023/02/23 13:42:16;;;;;;;62.40;10.95;;;;;;;7.36;43.44;101257.16;125418;1105;107071;-81
2023/02/23 13:45:05;;;;;;;16.23;6.60;;;;;;;7.21;42.87;101257.11;125324;1105;103541;-82